Terminal Aerodrome Forecast
Issued by NWS

Home | Current Version | Previous Version | Text Only | Print | Product List | Glossary On
Versions: 1 2 3 4 5 6 7 8 9 10 11 12 13 14
000
FTUS43 KLSX 281720
TAFCPS
TAF
KCPS 281720Z 2818/2918 15007KT P6SM SCT080 BKN250
     FM290100 16005KT P6SM BKN150
     FM291600 17007KT P6SM VCSH SCT050 BKN150=

USA.gov is the U.S. government's official web portal to all federal, state and local government web resources and services.